Time;durP1;ratioP1;P1;durP2;ratioP2;P2;SDS_P1;SDS_P2;PMS_P1;PMS_P2;Temp;Humidity;BMP_temperature;BMP_pressure;BME280_temperature;BME280_humidity;BME280_pressure;Samples;Min_cycle;Max_cycle;Signal;HPM_P1;HPM_P2
2023/01/04 00:01:09;;;;;;;27.08;7.32;;;;;;;7.05;100.00;101839.63;5052966;28;20041;-46
2023/01/04 00:03:35;;;;;;;21.60;7.07;;;;;;;7.04;100.00;101836.97;5053499;28;20036;-50
2023/01/04 00:06:03;;;;;;;23.58;7.53;;;;;;;7.03;100.00;101835.22;5053595;28;20029;-47
2023/01/04 00:08:29;;;;;;;25.83;8.13;;;;;;;6.99;100.00;101818.75;5052777;28;20036;-49
2023/01/04 00:11:13;;;;;;;22.90;7.78;;;;;;;6.97;100.00;101824.59;5053691;28;20104;-47
2023/01/04 00:13:38;;;;;;;25.60;9.10;;;;;;;6.99;100.00;101802.50;5052455;28;20021;-48
2023/01/04 00:16:07;;;;;;;25.90;7.50;;;;;;;6.97;100.00;101814.34;5053443;28;20036;-48
2023/01/04 00:18:33;;;;;;;25.73;8.55;;;;;;;6.96;100.00;101799.75;5053042;28;20384;-47
2023/01/04 00:21:07;;;;;;;26.38;8.48;;;;;;;6.94;100.00;101794.53;5052827;28;20048;-49
2023/01/04 00:23:32;;;;;;;26.52;8.93;;;;;;;6.91;100.00;101795.22;5053417;28;20032;-50
2023/01/04 00:25:57;;;;;;;25.20;8.88;;;;;;;6.92;100.00;101796.13;5053249;28;20033;-48
2023/01/04 00:28:22;;;;;;;25.30;8.23;;;;;;;6.90;100.00;101793.44;5052576;28;20021;-47
2023/01/04 00:30:48;;;;;;;30.23;8.77;;;;;;;6.90;100.00;101793.44;5052931;28;20026;-49
2023/01/04 00:33:13;;;;;;;21.55;8.20;;;;;;;6.91;100.00;101774.72;5053181;28;20051;-49
2023/01/04 00:35:38;;;;;;;30.65;9.48;;;;;;;6.95;100.00;101764.69;5052018;28;20040;-48
2023/01/04 00:38:03;;;;;;;23.48;8.23;;;;;;;6.94;100.00;101762.91;5053214;28;20024;-48
2023/01/04 00:40:29;;;;;;;32.67;8.77;;;;;;;6.96;100.00;101768.97;5053001;28;20056;-49
2023/01/04 00:42:54;;;;;;;30.17;8.60;;;;;;;7.00;100.00;101753.03;5052041;28;20025;-49
2023/01/04 00:45:19;;;;;;;20.92;8.02;;;;;;;7.03;100.00;101750.63;5052822;28;20025;-47
2023/01/04 00:47:44;;;;;;;26.98;8.63;;;;;;;7.02;100.00;101751.41;5052686;28;20021;-48
2023/01/04 00:50:10;;;;;;;22.67;8.00;;;;;;;7.08;100.00;101752.66;5052083;28;20029;-48
2023/01/04 00:52:35;;;;;;;31.08;8.70;;;;;;;7.09;100.00;101743.28;5052825;28;20036;-47
2023/01/04 00:55:00;;;;;;;19.83;8.05;;;;;;;7.09;100.00;101740.72;5053075;28;20143;-49
2023/01/04 00:57:25;;;;;;;26.23;8.55;;;;;;;7.10;100.00;101737.34;5052307;28;20376;-48
2023/01/04 00:59:51;;;;;;;32.85;9.20;;;;;;;7.12;100.00;101732.34;5052501;28;20029;-48
2023/01/04 01:02:16;;;;;;;22.33;8.25;;;;;;;7.13;100.00;101718.69;5052533;28;20508;-48
2023/01/04 01:04:41;;;;;;;25.13;8.60;;;;;;;7.15;100.00;101733.38;5051690;28;20035;-49
2023/01/04 01:07:07;;;;;;;19.13;8.18;;;;;;;7.15;100.00;101725.69;5052896;28;20488;-48
2023/01/04 01:09:32;;;;;;;23.55;8.68;;;;;;;7.16;100.00;101717.19;5052467;28;20499;-47
2023/01/04 01:11:57;;;;;;;20.63;8.00;;;;;;;7.19;100.00;101708.81;5052184;28;20465;-49
2023/01/04 01:14:24;;;;;;;19.75;7.15;;;;;;;7.23;100.00;101719.34;5052741;28;20111;-48
2023/01/04 01:16:50;;;;;;;19.13;7.23;;;;;;;7.22;100.00;101709.88;5051736;28;20082;-48
2023/01/04 01:19:15;;;;;;;21.48;7.32;;;;;;;7.27;100.00;101702.44;5052881;28;20017;-49
2023/01/04 01:21:41;;;;;;;20.00;7.22;;;;;;;7.29;100.00;101715.34;5052522;28;20413;-48
2023/01/04 01:24:13;;;;;;;17.10;6.90;;;;;;;7.31;100.00;101713.75;5051812;28;20021;-47
2023/01/04 01:26:38;;;;;;;15.45;6.38;;;;;;;7.32;100.00;101710.38;5052416;28;20033;-49
2023/01/04 01:29:04;;;;;;;17.50;6.65;;;;;;;7.35;100.00;101715.72;5052538;28;20476;-46
2023/01/04 01:31:29;;;;;;;18.02;6.68;;;;;;;7.34;100.00;101701.09;5051506;28;20078;-49
2023/01/04 01:33:55;;;;;;;21.55;6.72;;;;;;;7.37;100.00;101703.84;5052652;28;20048;-49
2023/01/04 01:36:23;;;;;;;20.58;6.97;;;;;;;7.39;100.00;101689.44;5052602;28;20036;-48
2023/01/04 01:38:49;;;;;;;13.93;6.55;;;;;;;7.39;100.00;101686.88;5051484;28;20025;-50
2023/01/04 01:41:20;;;;;;;15.38;6.80;;;;;;;7.39;100.00;101682.59;5052469;28;20086;-48
2023/01/04 01:43:53;;;;;;;17.60;7.05;;;;;;;7.39;100.00;101695.44;5052128;28;20076;-46
2023/01/04 01:46:31;;;;;;;15.43;6.97;;;;;;;7.39;100.00;101692.00;5051570;28;20061;-49
2023/01/04 01:49:21;;;;;;;17.13;7.32;;;;;;;7.38;100.00;101677.41;5052588;28;20083;-49
2023/01/04 01:51:47;;;;;;;16.95;6.65;;;;;;;7.39;100.00;101684.31;5051921;28;20420;-46
2023/01/04 01:54:19;;;;;;;19.38;7.15;;;;;;;7.39;100.00;101687.75;5052014;28;20065;-49
2023/01/04 01:56:48;;;;;;;18.83;7.00;;;;;;;7.40;100.00;101679.25;5056065;28;20036;-48
2023/01/04 01:59:14;;;;;;;18.10;7.82;;;;;;;7.42;100.00;101692.16;5055513;28;20029;-48
2023/01/04 02:01:40;;;;;;;13.00;7.28;;;;;;;7.41;100.00;101665.63;5055694;28;20057;-50
2023/01/04 02:04:07;;;;;;;11.38;6.35;;;;;;;7.46;100.00;101673.56;5056049;28;20025;-48
2023/01/04 02:06:36;;;;;;;16.90;6.75;;;;;;;7.45;100.00;101687.22;5054834;28;20033;-49
2023/01/04 02:09:02;;;;;;;14.60;6.50;;;;;;;7.46;100.00;101678.69;5055902;28;20052;-49
2023/01/04 02:11:27;;;;;;;12.85;6.72;;;;;;;7.48;100.00;101689.06;5055868;28;20110;-45
2023/01/04 02:16:55;;;;;;;15.88;6.97;;;;;;;7.50;100.00;101687.44;5055800;28;20570;-47
2023/01/04 02:19:23;;;;;;;12.10;6.10;;;;;;;7.52;100.00;101681.59;5055835;28;20063;-45
2023/01/04 02:21:57;;;;;;;;;;;;;;;7.58;100.00;101679.38;5055004;28;20043;-48
2023/01/04 02:24:53;;;;;;;12.55;5.70;;;;;;;7.57;100.00;101672.47;5055754;28;19924;-49
2023/01/04 02:27:52;;;;;;;12.35;5.45;;;;;;;7.60;100.00;101676.03;5054808;28;20112;-48
2023/01/04 02:30:48;;;;;;;14.00;5.57;;;;;;;7.64;100.00;101665.13;5055496;28;20421;-48
2023/01/04 02:33:54;;;;;;;11.70;5.10;;;;;;;7.66;100.00;101646.47;5055610;28;20036;-49
2023/01/04 02:36:39;;;;;;;13.15;5.50;;;;;;;7.69;100.00;101649.19;5054909;28;20151;-49
2023/01/04 02:39:17;;;;;;;10.10;5.35;;;;;;;7.70;100.00;101660.34;5055545;28;20032;-49
2023/01/04 02:41:52;;;;;;;12.05;4.65;;;;;;;7.74;100.00;101654.56;5054258;28;20056;-47
2023/01/04 02:50:29;;;;;;;7.18;4.43;;;;;;;7.79;100.00;101642.88;5055566;28;20117;-49
2023/01/04 02:50:30;;;;;;;10.02;4.40;;;;;;;7.84;100.00;101625.16;5054461;28;20110;-48
2023/01/04 02:53:09;;;;;;;12.88;4.38;;;;;;;7.85;100.00;101632.94;5055160;28;20499;-48
2023/01/04 02:55:59;;;;;;;10.02;4.40;;;;;;;7.89;100.00;101624.59;5054177;28;20022;-47
2023/01/04 02:58:40;;;;;;;9.65;4.13;;;;;;;7.91;100.00;101615.31;5055128;28;20110;-49
2023/01/04 03:07:13;;;;;;;8.95;4.22;;;;;;;7.97;100.00;101616.44;5054557;28;20404;-48
2023/01/04 03:09:41;;;;;;;7.65;4.22;;;;;;;8.00;100.00;101626.84;5053756;28;20036;-47
2023/01/04 03:12:31;;;;;;;9.35;4.53;;;;;;;8.01;100.00;101608.09;5054549;28;20437;-49
2023/01/04 03:15:05;;;;;;;6.93;3.95;;;;;;;8.01;100.00;101598.69;5054622;28;20404;-46
2023/01/04 03:17:37;;;;;;;7.90;4.60;;;;;;;8.03;100.00;101606.47;5053577;28;20435;-49
2023/01/04 03:20:05;;;;;;;8.80;4.68;;;;;;;8.06;100.00;101593.81;5054799;28;20021;-48
2023/01/04 03:37:06;;;;;;;11.80;5.68;;;;;;;8.14;100.00;101589.94;5054604;28;20040;-49
2023/01/04 03:48:30;;;;;;;9.85;5.85;;;;;;;8.33;100.00;101555.81;5054454;28;20497;-48
2023/01/04 03:51:24;;;;;;;12.88;6.72;;;;;;;8.35;100.00;101553.31;5054145;28;20028;-47
2023/01/04 03:53:59;;;;;;;11.20;6.65;;;;;;;8.35;100.00;101546.50;5050678;28;20037;-50
2023/01/04 03:56:27;;;;;;;9.40;6.45;;;;;;;8.38;100.00;101538.06;5054028;28;20036;-48
2023/01/04 03:58:53;;;;;;;9.57;5.88;;;;;;;8.36;100.00;101555.06;5053247;28;20035;-49
2023/01/04 04:01:19;;;;;;;13.43;6.45;;;;;;;8.40;100.00;101533.88;5053510;28;20037;-45
2023/01/04 04:09:12;;;;;;;11.40;7.00;;;;;;;8.47;100.00;101543.69;5054399;28;20094;-49
2023/01/04 04:11:38;;;;;;;10.63;6.50;;;;;;;8.50;100.00;101533.53;5053344;28;20029;-48
2023/01/04 04:14:03;;;;;;;9.98;6.28;;;;;;;8.53;100.00;101527.69;5052773;28;20031;-49
2023/01/04 04:16:28;;;;;;;8.77;5.93;;;;;;;8.55;100.00;101529.50;5053319;28;20028;-49
2023/01/04 04:18:54;;;;;;;10.68;6.32;;;;;;;8.55;100.00;101516.66;5053140;28;20372;-48
2023/01/04 04:21:19;;;;;;;10.20;6.68;;;;;;;8.56;100.00;101525.28;5052778;28;20163;-49
2023/01/04 04:23:45;;;;;;;12.57;6.65;;;;;;;8.60;100.00;101523.72;5053040;28;20021;-50
2023/01/04 04:26:10;;;;;;;9.57;6.60;;;;;;;8.59;100.00;101532.25;5053178;28;20025;-49
2023/01/04 04:28:35;;;;;;;12.27;6.97;;;;;;;8.60;100.00;101518.56;5052235;28;20096;-49
2023/01/04 04:31:01;;;;;;;14.85;7.05;;;;;;;8.59;100.00;101504.84;5053255;28;20483;-50
2023/01/04 04:33:26;;;;;;;11.60;7.13;;;;;;;8.60;100.00;101513.44;5053143;28;20109;-49
2023/01/04 04:35:53;;;;;;;10.70;6.72;;;;;;;8.61;100.00;101499.78;5052315;28;20115;-47
2023/01/04 04:38:19;;;;;;;10.63;6.97;;;;;;;8.62;100.00;101501.56;5053158;28;20388;-50
2023/01/04 04:43:31;;;;;;;11.82;7.05;;;;;;;8.65;100.00;101496.56;5052686;28;20153;-49
2023/01/04 04:45:56;;;;;;;15.02;7.65;;;;;;;8.69;100.00;101475.34;5053108;28;20033;-50
2023/01/04 04:48:22;;;;;;;13.50;7.30;;;;;;;8.71;100.00;101486.56;5052359;28;20479;-49
2023/01/04 04:50:47;;;;;;;13.30;7.35;;;;;;;8.74;100.00;101497.00;5052747;28;20124;-49
2023/01/04 04:53:12;;;;;;;17.58;7.85;;;;;;;8.80;100.00;101483.56;5052715;28;20089;-47
2023/01/04 04:55:37;;;;;;;14.55;7.65;;;;;;;8.80;100.00;101491.28;5050979;28;20487;-48
2023/01/04 04:58:03;;;;;;;10.55;6.90;;;;;;;8.82;100.00;101472.53;5052508;28;20040;-49
2023/01/04 05:00:28;;;;;;;13.48;7.40;;;;;;;8.84;100.00;101478.63;5052708;28;20041;-48
2023/01/04 05:02:57;;;;;;;13.88;7.30;;;;;;;8.87;100.00;101475.31;5051968;28;20096;-49
2023/01/04 05:05:22;;;;;;;12.95;7.10;;;;;;;8.90;100.00;101475.47;5052932;28;20044;-48
2023/01/04 05:07:48;;;;;;;11.55;6.97;;;;;;;8.93;100.00;101470.47;5052369;28;20396;-47
2023/01/04 05:10:13;;;;;;;14.75;6.88;;;;;;;8.99;100.00;101462.16;5051648;28;20029;-48
2023/01/04 05:15:22;;;;;;;14.85;7.32;;;;;;;9.02;100.00;101458.03;5052755;28;20056;-49
2023/01/04 05:17:48;;;;;;;12.77;6.60;;;;;;;9.06;100.00;101459.94;5051551;28;20461;-48
2023/01/04 05:20:13;;;;;;;16.30;7.50;;;;;;;9.09;100.00;101458.31;5052783;28;20025;-49
2023/01/04 05:22:39;;;;;;;14.10;6.60;;;;;;;9.12;100.00;101464.47;5052328;28;20025;-48
2023/01/04 05:25:07;;;;;;;13.25;7.00;;;;;;;9.11;100.00;101457.56;5051435;28;20495;-47
2023/01/04 05:27:32;;;;;;;17.20;7.50;;;;;;;9.13;100.00;101461.09;5052356;28;20044;-49
2023/01/04 05:32:42;;;;;;;11.43;6.32;;;;;;;9.18;100.00;101449.34;5056703;28;20044;-48
2023/01/04 05:35:07;;;;;;;13.77;6.13;;;;;;;9.19;100.00;101438.22;5056490;28;20029;-49
2023/01/04 05:37:33;;;;;;;19.33;6.85;;;;;;;9.21;100.00;101441.75;5055402;28;20131;-49
2023/01/04 05:39:58;;;;;;;14.50;6.70;;;;;;;9.21;100.00;101436.59;5055952;28;20029;-49
2023/01/04 05:42:26;;;;;;;17.75;6.40;;;;;;;9.23;100.00;101431.50;5056496;28;20068;-47
2023/01/04 05:44:56;;;;;;;15.50;6.63;;;;;;;9.26;100.00;101428.19;5055269;28;20476;-50
2023/01/04 05:47:23;;;;;;;11.93;6.28;;;;;;;9.23;100.00;101436.66;5056242;28;20028;-46
2023/01/04 05:49:48;;;;;;;12.05;6.72;;;;;;;9.19;100.00;101420.22;5055731;28;20474;-49
2023/01/04 05:52:13;;;;;;;14.18;6.97;;;;;;;9.25;100.00;101431.59;5055476;28;20111;-49
2023/01/04 05:54:39;;;;;;;13.75;6.68;;;;;;;9.26;100.00;101412.75;5055717;28;20063;-48
2023/01/04 05:57:05;;;;;;;12.73;6.72;;;;;;;9.25;100.00;101408.47;5056155;28;20111;-49
2023/01/04 05:59:30;;;;;;;12.35;6.55;;;;;;;9.26;100.00;101413.66;5055034;28;20017;-48
2023/01/04 06:01:56;;;;;;;14.40;6.28;;;;;;;9.26;100.00;101415.34;5056093;28;20106;-49
2023/01/04 06:04:21;;;;;;;15.00;6.07;;;;;;;9.31;100.00;101403.56;5055374;28;20025;-48
2023/01/04 06:06:46;;;;;;;17.33;6.70;;;;;;;9.32;100.00;101410.47;5055049;28;20070;-48
2023/01/04 06:09:12;;;;;;;11.32;6.05;;;;;;;9.35;100.00;101426.91;5055421;28;20383;-49
2023/01/04 06:11:37;;;;;;;12.27;6.05;;;;;;;9.38;100.00;101423.59;5054972;28;20017;-48
2023/01/04 06:14:02;;;;;;;11.95;5.45;;;;;;;9.42;100.00;101430.63;5055277;28;20021;-49
2023/01/04 06:16:28;;;;;;;13.27;6.00;;;;;;;9.44;100.00;101426.44;5055357;28;20441;-47
2023/01/04 06:18:53;;;;;;;15.20;5.70;;;;;;;9.47;100.00;101436.88;5055726;28;20032;-49
2023/01/04 06:21:19;;;;;;;13.32;6.35;;;;;;;9.44;100.00;101429.03;5055013;28;20021;-46
2023/01/04 06:23:44;;;;;;;11.13;5.45;;;;;;;9.42;100.00;101411.75;5055130;28;20025;-50
2023/01/04 06:26:09;;;;;;;14.43;6.57;;;;;;;9.40;100.00;101403.97;5054853;28;20028;-48
2023/01/04 06:28:35;;;;;;;11.55;6.45;;;;;;;9.43;100.00;101395.53;5055422;28;20021;-49
2023/01/04 06:31:06;;;;;;;13.02;5.80;;;;;;;9.42;100.00;101402.34;5055709;28;20051;-50
2023/01/04 06:33:32;;;;;;;13.50;5.43;;;;;;;9.43;100.00;101406.66;5054462;28;20025;-50
2023/01/04 06:35:58;;;;;;;11.98;5.38;;;;;;;9.47;100.00;101399.97;5055321;28;20025;-49
2023/01/04 06:38:24;;;;;;;11.60;5.78;;;;;;;9.48;100.00;101412.91;5055131;28;20033;-49
2023/01/04 06:40:49;;;;;;;11.70;5.80;;;;;;;9.46;100.00;101414.50;5053516;28;20040;-49
2023/01/04 06:43:15;;;;;;;11.07;5.32;;;;;;;9.46;100.00;101409.38;5055503;28;20104;-48
2023/01/04 06:45:41;;;;;;;11.45;5.60;;;;;;;9.48;100.00;101407.75;5055191;28;20078;-48
2023/01/04 06:48:06;;;;;;;9.88;5.00;;;;;;;9.51;100.00;101418.16;5054378;28;20368;-49
2023/01/04 06:50:31;;;;;;;9.63;4.75;;;;;;;9.52;100.00;101425.06;5054956;28;20021;-48
2023/01/04 06:52:57;;;;;;;8.63;4.55;;;;;;;9.55;100.00;101414.03;5055079;28;20035;-48
2023/01/04 06:55:22;;;;;;;7.70;4.93;;;;;;;9.55;100.00;101422.66;5054171;28;20075;-49
2023/01/04 06:57:47;;;;;;;7.80;4.40;;;;;;;9.55;100.00;101403.75;5054787;28;20052;-49
2023/01/04 07:00:15;;;;;;;9.07;4.72;;;;;;;9.61;100.00;101423.72;5054548;28;20384;-49
2023/01/04 07:02:40;;;;;;;7.68;4.30;;;;;;;9.64;100.00;101409.28;5053450;28;20045;-48
2023/01/04 07:05:05;;;;;;;7.68;3.95;;;;;;;9.69;100.00;101409.47;5054814;28;20428;-49
2023/01/04 07:07:32;;;;;;;6.00;3.80;;;;;;;9.77;100.00;101404.66;5054460;28;20116;-50
2023/01/04 07:09:57;;;;;;;10.15;4.30;;;;;;;9.76;100.00;101408.94;5053899;28;20040;-49
2023/01/04 07:12:23;;;;;;;8.32;4.18;;;;;;;9.76;100.00;101403.78;5054852;28;20482;-47
2023/01/04 07:14:48;;;;;;;8.63;3.90;;;;;;;9.81;100.00;101412.59;5054537;28;20028;-49
2023/01/04 07:17:13;;;;;;;9.77;4.40;;;;;;;9.86;100.00;101411.09;5053836;28;20057;-48
2023/01/04 07:19:39;;;;;;;8.82;3.63;;;;;;;9.87;100.00;101396.50;5054474;28;20100;-49
2023/01/04 07:22:04;;;;;;;9.85;3.88;;;;;;;9.93;100.00;101385.56;5054480;28;20112;-47
2023/01/04 07:24:29;;;;;;;9.95;3.50;;;;;;;9.97;100.00;101384.91;5052879;28;20100;-50
2023/01/04 07:26:55;;;;;;;17.90;3.72;;;;;;;10.02;100.00;101381.69;5054015;28;20036;-49
2023/01/04 07:29:21;;;;;;;7.68;3.45;;;;;;;10.11;100.00;101370.88;5054503;28;20021;-49
2023/01/04 07:31:48;;;;;;;10.88;3.67;;;;;;;10.16;100.00;101379.66;5053341;28;20021;-48
2023/01/04 07:34:15;;;;;;;10.45;3.00;;;;;;;10.25;100.00;101366.28;5054583;28;20025;-49
2023/01/04 07:36:40;;;;;;;8.97;3.17;;;;;;;10.25;100.00;101367.94;5053014;28;20111;-47
2023/01/04 07:39:09;;;;;;;6.40;3.17;;;;;;;10.27;100.00;101371.47;5053906;28;20437;-49
2023/01/04 07:41:35;;;;;;;9.88;3.42;;;;;;;10.32;100.00;101352.78;5053807;28;20021;-48
2023/01/04 07:44:01;;;;;;;12.10;3.88;;;;;;;10.36;100.00;101375.31;5053303;28;20025;-49
2023/01/04 07:46:27;;;;;;;9.13;3.55;;;;;;;10.38;100.00;101367.66;5053863;28;20082;-49
2023/01/04 07:48:52;;;;;;;24.27;13.60;;;;;;;10.36;100.00;101371.88;5054105;28;20131;-49
2023/01/04 07:51:17;;;;;;;19.20;9.50;;;;;;;10.38;100.00;101357.34;5053292;28;20052;-49
2023/01/04 07:53:43;;;;;;;8.45;3.30;;;;;;;10.39;100.00;101348.78;5052452;28;20108;-49
2023/01/04 07:56:08;;;;;;;9.98;3.40;;;;;;;10.38;100.00;101340.19;5053828;28;20021;-50
2023/01/04 07:58:35;;;;;;;11.93;4.15;;;;;;;10.38;100.00;101350.50;5052719;28;20051;-48
2023/01/04 08:01:16;;;;;;;16.97;4.53;;;;;;;10.43;100.00;101358.41;5053412;28;20496;-49
2023/01/04 08:03:41;;;;;;;11.68;3.67;;;;;;;10.41;100.00;101334.28;5053667;28;20020;-49
2023/01/04 08:06:09;;;;;;;65.28;31.55;;;;;;;10.48;100.00;101346.59;5052787;28;20373;-49
2023/01/04 08:08:34;;;;;;;;;;;;;;;10.51;100.00;101357.00;5053835;28;20028;-48
2023/01/04 08:11:05;;;;;;;37.80;24.27;;;;;;;10.52;100.00;101363.91;5053555;28;20490;-48
2023/01/04 08:13:31;;;;;;;13.38;8.57;;;;;;;10.50;100.00;101347.50;5052322;28;20069;-46
2023/01/04 08:15:57;;;;;;;15.50;3.80;;;;;;;10.51;100.00;101344.09;5053754;28;20089;-49
2023/01/04 08:18:22;;;;;;;16.08;5.93;;;;;;;10.49;100.00;101357.75;5053667;28;20025;-47
2023/01/04 08:20:48;;;;;;;12.57;3.30;;;;;;;10.44;100.00;101370.44;5052431;28;20029;-50
2023/01/04 08:23:13;;;;;;;12.05;3.88;;;;;;;10.37;100.00;101376.22;5053590;28;20028;-46
2023/01/04 08:25:38;;;;;;;12.98;3.63;;;;;;;10.32;100.00;101363.09;5052960;28;20025;-45
2023/01/04 08:28:04;;;;;;;10.70;3.72;;;;;;;10.33;100.00;101356.25;5052852;28;20074;-50
2023/01/04 08:30:29;;;;;;;12.90;3.85;;;;;;;10.31;100.00;101357.88;5053085;28;20467;-49
2023/01/04 08:32:56;;;;;;;10.65;4.65;;;;;;;10.38;100.00;101372.81;5052425;28;20025;-50
2023/01/04 08:35:21;;;;;;;12.98;3.60;;;;;;;10.45;100.00;101371.34;5053266;28;20040;-49
2023/01/04 08:37:46;;;;;;;9.57;3.72;;;;;;;10.49;100.00;101357.75;5052701;28;20395;-49
2023/01/04 08:40:12;;;;;;;9.15;3.25;;;;;;;10.49;100.00;101368.94;5051130;28;20037;-49
2023/01/04 08:42:37;;;;;;;14.13;4.35;;;;;;;10.51;100.00;101367.31;5052791;28;20021;-46
2023/01/04 08:45:03;;;;;;;11.40;3.75;;;;;;;10.52;100.00;101387.09;5052972;28;20032;-49
2023/01/04 08:47:30;;;;;;;13.90;5.45;;;;;;;10.54;100.00;101380.28;5052044;28;20033;-48
2023/01/04 08:49:56;;;;;;;16.00;6.25;;;;;;;10.59;100.00;101379.59;5052993;28;20029;-49
2023/01/04 08:52:22;;;;;;;16.20;3.65;;;;;;;10.58;100.00;101375.28;5053142;28;20017;-45
2023/01/04 08:54:48;;;;;;;13.27;4.00;;;;;;;10.61;100.00;101372.81;5051972;28;20090;-49
2023/01/04 08:57:14;;;;;;;22.25;5.03;;;;;;;10.63;100.00;101382.34;5052803;28;20491;-46
2023/01/04 08:59:39;;;;;;;11.18;3.75;;;;;;;10.65;100.00;101380.72;5052556;28;20420;-49
2023/01/04 09:02:19;;;;;;;15.63;5.45;;;;;;;10.67;100.00;101385.94;5052095;28;20041;-45
2023/01/04 09:04:44;;;;;;;21.80;5.10;;;;;;;10.72;100.00;101379.25;5052432;28;20116;-50
2023/01/04 09:07:10;;;;;;;15.25;3.85;;;;;;;10.70;100.00;101373.13;5052837;28;20116;-49
2023/01/04 09:09:35;;;;;;;11.93;4.72;;;;;;;10.70;100.00;101379.19;5051700;28;20013;-49
2023/01/04 09:12:00;;;;;;;12.68;4.68;;;;;;;10.74;100.00;101380.16;5052716;28;20108;-49
2023/01/04 09:14:26;;;;;;;12.20;3.45;;;;;;;10.73;100.00;101378.44;5052646;28;20172;-48
2023/01/04 09:16:51;;;;;;;10.70;3.63;;;;;;;10.74;100.00;101380.16;5051815;28;20384;-49
2023/01/04 09:19:16;;;;;;;9.02;3.38;;;;;;;10.72;100.00;101350.88;5052713;28;20485;-48
2023/01/04 09:21:42;;;;;;;11.98;3.65;;;;;;;10.71;100.00;101362.00;5052456;28;20457;-49
2023/01/04 09:24:07;;;;;;;9.90;3.20;;;;;;;10.71;100.00;101368.03;5052389;28;20021;-47
2023/01/04 09:26:32;;;;;;;13.18;3.35;;;;;;;10.69;100.00;101361.06;5052196;28;20036;-48
2023/01/04 09:28:57;;;;;;;16.98;3.58;;;;;;;10.68;100.00;101359.34;5052290;28;20464;-45
2023/01/04 09:31:26;;;;;;;16.50;3.38;;;;;;;10.64;100.00;101367.75;5052267;28;20071;-48
2023/01/04 09:33:52;;;;;;;10.48;4.18;;;;;;;10.62;100.00;101366.84;5052465;28;20032;-47
2023/01/04 09:36:18;;;;;;;14.05;4.43;;;;;;;10.58;100.00;101386.44;5051861;28;20021;-46
2023/01/04 09:38:44;;;;;;;13.32;4.07;;;;;;;10.55;100.00;101376.03;5052199;28;20452;-48
2023/01/04 09:41:13;;;;;;;41.30;20.17;;;;;;;10.50;100.00;101391.31;5052336;28;20514;-48
2023/01/04 09:43:59;;;;;;;25.27;8.50;;;;;;;10.49;100.00;101381.81;5051520;28;20053;-49
2023/01/04 09:46:31;;;;;;;16.58;6.25;;;;;;;10.44;100.00;101373.03;5052449;28;20108;-46
2023/01/04 09:49:09;;;;;;;116.70;38.65;;;;;;;10.43;100.00;101371.28;5052202;28;20434;-48
2023/01/04 09:51:37;;;;;;;33.20;12.32;;;;;;;10.44;100.00;101361.84;5051209;28;20503;-49
2023/01/04 09:54:06;;;;;;;;;;;;;;;10.49;100.00;101374.09;5052683;28;20337;-45
2023/01/04 09:56:34;;;;;;;19.25;8.65;;;;;;;10.44;100.00;101374.75;5052019;28;20281;-48
2023/01/04 09:59:04;;;;;;;13.00;5.47;;;;;;;10.46;100.00;101365.38;5051470;28;20447;-46
2023/01/04 10:01:52;;;;;;;15.70;8.93;;;;;;;10.47;100.00;101364.53;5051825;28;20041;-46
2023/01/04 10:04:24;;;;;;;14.73;5.53;;;;;;;10.46;100.00;101370.53;5051680;28;20024;-47
2023/01/04 10:06:51;;;;;;;14.52;4.50;;;;;;;10.45;100.00;101372.22;5052016;28;20032;-49
2023/01/04 10:09:17;;;;;;;12.85;4.65;;;;;;;10.44;100.00;101364.44;5052275;28;20096;-50
2023/01/04 10:12:24;;;;;;;15.77;5.25;;;;;;;10.41;100.00;101354.88;5051187;28;20117;-47
2023/01/04 10:15:03;;;;;;;13.48;4.75;;;;;;;10.36;100.00;101365.00;5041598;28;20041;-45
2023/01/04 10:18:08;;;;;;;15.48;5.53;;;;;;;10.32;100.00;101362.22;5055379;28;20396;-47
2023/01/04 10:20:46;;;;;;;15.52;5.90;;;;;;;10.28;100.00;101371.53;5042695;28;20037;-48
2023/01/04 10:23:35;;;;;;;20.65;8.63;;;;;;;10.29;100.00;101362.09;5055883;28;20032;-45
2023/01/04 10:26:11;;;;;;;20.42;5.90;;;;;;;10.29;100.00;101369.81;5054787;28;20536;-49
2023/01/04 10:28:58;;;;;;;17.17;7.53;;;;;;;10.28;100.00;101373.25;5055233;28;20037;-46
2023/01/04 10:31:41;;;;;;;16.92;6.60;;;;;;;10.30;100.00;101361.28;5055516;28;20488;-48
2023/01/04 10:34:26;;;;;;;15.20;6.72;;;;;;;10.31;100.00;101365.63;5054927;28;20025;-48
2023/01/04 10:37:10;;;;;;;25.02;10.95;;;;;;;10.29;100.00;101365.56;5055205;28;20029;-48
2023/01/04 10:39:36;;;;;;;15.48;7.53;;;;;;;10.29;100.00;101356.94;5054508;28;20112;-48
2023/01/04 10:42:17;;;;;;;17.77;9.35;;;;;;;10.29;100.00;101346.63;5055410;28;20100;-48
2023/01/04 10:44:49;;;;;;;15.88;6.13;;;;;;;10.30;100.00;101345.81;5054970;28;20032;-48
2023/01/04 10:47:25;;;;;;;19.55;9.45;;;;;;;10.29;100.00;101339.81;5054532;28;20037;-48
2023/01/04 10:49:56;;;;;;;23.98;10.75;;;;;;;10.29;100.00;101344.06;5054929;28;20461;-49
2023/01/04 10:52:31;;;;;;;19.52;7.47;;;;;;;10.29;100.00;101339.81;5055365;28;20070;-48
2023/01/04 10:55:03;;;;;;;13.00;5.97;;;;;;;10.30;100.00;101346.72;5054545;28;20100;-49
2023/01/04 10:57:57;;;;;;;13.30;6.38;;;;;;;10.33;100.00;101343.38;5054798;28;20024;-46
2023/01/04 11:00:47;;;;;;;18.70;7.43;;;;;;;10.32;100.00;101346.78;5054370;28;20036;-45
2023/01/04 11:03:30;;;;;;;16.45;6.97;;;;;;;10.31;100.00;101338.16;5054668;28;20055;-48
2023/01/04 11:06:32;;;;;;;15.63;5.30;;;;;;;10.34;100.00;101363.16;5054738;28;20376;-49
2023/01/04 11:09:00;;;;;;;18.88;6.25;;;;;;;10.32;100.00;101365.69;5054134;28;20480;-48
2023/01/04 11:11:39;;;;;;;17.30;5.85;;;;;;;10.31;100.00;101347.59;5054993;28;20048;-49
2023/01/04 11:14:05;;;;;;;12.77;5.43;;;;;;;10.31;100.00;101350.16;5054889;28;20079;-50
2023/01/04 11:16:31;;;;;;;15.63;5.40;;;;;;;10.31;100.00;101345.88;5053644;28;20025;-48
2023/01/04 11:18:57;;;;;;;12.88;7.45;;;;;;;10.32;100.00;101346.78;5054509;28;20033;-48
2023/01/04 11:21:27;;;;;;;8.00;4.07;;;;;;;10.34;100.00;101347.69;5054524;28;20020;-47
2023/01/04 11:23:57;;;;;;;20.50;11.98;;;;;;;10.34;100.00;101343.44;5054027;28;20100;-48
2023/01/04 11:26:30;;;;;;;10.38;6.00;;;;;;;10.32;100.00;101346.78;5054353;28;20029;-48
2023/01/04 11:29:03;;;;;;;17.92;9.48;;;;;;;10.33;100.00;101335.66;5053759;28;20029;-47
2023/01/04 11:31:48;;;;;;;30.48;12.80;;;;;;;10.33;100.00;101333.06;5053947;28;20056;-48
2023/01/04 11:34:13;;;;;;;13.18;6.32;;;;;;;10.32;100.00;101334.75;5054538;28;20017;-48
2023/01/04 11:36:41;;;;;;;9.38;3.75;;;;;;;10.33;100.00;101341.66;5053473;28;20100;-48
2023/01/04 11:39:27;;;;;;;6.82;4.32;;;;;;;10.35;100.00;101354.59;5054264;28;20460;-49
2023/01/04 11:42:03;;;;;;;6.82;3.83;;;;;;;10.33;100.00;101344.25;5053922;28;20090;-48
2023/01/04 11:44:29;;;;;;;8.82;5.70;;;;;;;10.34;100.00;101347.69;5053144;28;20482;-48
2023/01/04 11:47:18;;;;;;;11.43;5.93;;;;;;;10.34;100.00;101342.53;5053981;28;20385;-46
2023/01/04 11:49:44;;;;;;;7.90;5.38;;;;;;;10.34;100.00;101358.91;5053037;28;20103;-49
2023/01/04 11:52:31;;;;;;;4.60;3.03;;;;;;;10.36;100.00;101346.97;5054075;28;20048;-49
2023/01/04 11:55:14;;;;;;;7.78;4.82;;;;;;;10.34;100.00;101350.28;5054148;28;20024;-48
2023/01/04 11:57:39;;;;;;;8.60;4.63;;;;;;;10.34;100.00;101352.84;5052970;28;20028;-48
2023/01/04 12:00:14;;;;;;;7.00;3.42;;;;;;;10.34;100.00;101358.00;5053915;28;20027;-48
2023/01/04 12:02:39;;;;;;;9.45;3.80;;;;;;;10.34;100.00;101348.59;5053322;28;20128;-47
2023/01/04 12:05:19;;;;;;;6.45;3.85;;;;;;;10.34;100.00;101342.53;5053249;28;20021;-47
2023/01/04 12:07:44;;;;;;;9.00;3.72;;;;;;;10.33;100.00;101346.81;5053452;28;20032;-49
2023/01/04 12:10:23;;;;;;;6.35;3.47;;;;;;;10.35;100.00;101345.22;5053823;28;20096;-47
2023/01/04 12:12:48;;;;;;;5.07;3.25;;;;;;;10.35;100.00;101354.59;5052775;28;20029;-49
2023/01/04 12:15:21;;;;;;;5.93;3.10;;;;;;;10.35;100.00;101345.22;5053596;28;20495;-48
2023/01/04 12:17:54;;;;;;;4.22;3.20;;;;;;;10.38;100.00;101349.63;5052871;28;20146;-48